createdAt,value
2023-03-30T00:01:11.314Z,14.21
2023-03-30T00:03:39.278Z,14.29
2023-03-30T00:06:08.846Z,14.32
2023-03-30T00:08:35.839Z,14.28
2023-03-30T00:11:07.793Z,14.33
2023-03-30T00:13:36.540Z,14.32
2023-03-30T00:16:06.184Z,14.34
2023-03-30T00:18:34.534Z,14.34
2023-03-30T00:21:04.234Z,14.35
2023-03-30T00:23:32.250Z,14.35
2023-03-30T00:26:00.052Z,14.37
2023-03-30T00:28:27.090Z,14.33
2023-03-30T00:30:53.964Z,14.32
2023-03-30T00:33:30.274Z,14.34
2023-03-30T00:36:04.922Z,14.43
2023-03-30T00:38:31.858Z,14.46
2023-03-30T00:41:01.870Z,14.47
2023-03-30T00:43:29.712Z,14.47
2023-03-30T00:45:57.513Z,14.46
2023-03-30T00:48:40.703Z,14.43
2023-03-30T00:51:12.190Z,14.40
2023-03-30T00:53:46.108Z,14.40
2023-03-30T00:56:16.996Z,14.44
2023-03-30T00:58:45.298Z,14.40
2023-03-30T01:01:16.026Z,14.40
2023-03-30T01:03:48.422Z,14.42
2023-03-30T01:06:22.048Z,14.38
2023-03-30T01:08:50.506Z,14.38
2023-03-30T01:11:17.375Z,14.37
2023-03-30T01:13:54.483Z,14.33
2023-03-30T01:16:28.749Z,14.34
2023-03-30T01:19:45.253Z,14.31
2023-03-30T01:22:58.948Z,14.31
2023-03-30T01:26:13.291Z,14.29
2023-03-30T01:29:05.004Z,14.28
2023-03-30T01:32:12.768Z,14.23
2023-03-30T01:35:13.555Z,14.19
2023-03-30T01:38:06.943Z,14.20
2023-03-30T01:40:46.107Z,14.22
2023-03-30T01:43:21.213Z,14.23
2023-03-30T01:45:53.765Z,14.26
2023-03-30T01:48:44.530Z,14.24
2023-03-30T01:51:20.597Z,14.28
2023-03-30T01:54:10.993Z,14.19
2023-03-30T01:56:44.385Z,14.23
2023-03-30T01:59:14.864Z,14.27
2023-03-30T02:01:43.170Z,14.27
2023-03-30T02:04:11.822Z,14.24
2023-03-30T02:06:46.082Z,14.36
2023-03-30T02:09:20.785Z,14.24
2023-03-30T02:11:51.322Z,14.30
2023-03-30T02:14:22.895Z,14.25
2023-03-30T02:16:56.020Z,14.19
2023-03-30T02:19:23.169Z,14.08
2023-03-30T02:21:50.534Z,14.04
2023-03-30T02:24:22.900Z,13.89
2023-03-30T02:26:51.838Z,13.84
2023-03-30T02:29:21.141Z,13.80
2023-03-30T02:31:53.478Z,13.79
2023-03-30T02:34:45.707Z,13.72
2023-03-30T02:37:30.450Z,13.79
2023-03-30T02:40:42.070Z,13.89
2023-03-30T02:43:45.021Z,13.90
2023-03-30T02:46:42.562Z,13.96
2023-03-30T02:49:24.666Z,13.97
2023-03-30T02:52:13.884Z,13.98
2023-03-30T02:54:59.032Z,13.92
2023-03-30T02:57:35.303Z,14.01
2023-03-30T03:00:44.303Z,14.07
2023-03-30T03:03:24.086Z,14.16
2023-03-30T03:05:56.038Z,14.24
2023-03-30T03:08:25.153Z,14.29
2023-03-30T03:10:52.197Z,14.37
2023-03-30T03:13:20.789Z,14.38
2023-03-30T03:15:49.534Z,14.42
2023-03-30T03:18:16.740Z,14.45
2023-03-30T03:20:43.668Z,14.40
2023-03-30T03:23:10.771Z,14.31
2023-03-30T03:25:37.754Z,14.15
2023-03-30T03:28:04.799Z,14.35
2023-03-30T03:30:31.680Z,14.44
2023-03-30T03:32:58.703Z,14.37
2023-03-30T03:35:25.661Z,14.11
2023-03-30T03:37:52.483Z,14.38
2023-03-30T03:40:19.335Z,14.40
2023-03-30T03:42:46.139Z,14.40
2023-03-30T03:45:13.083Z,14.46
2023-03-30T03:47:40.195Z,14.01
2023-03-30T03:50:09.885Z,14.10
2023-03-30T03:52:37.214Z,14.08
2023-03-30T03:55:05.029Z,13.96
2023-03-30T03:57:32.018Z,14.17
2023-03-30T03:59:59.881Z,14.33
2023-03-30T04:02:27.837Z,14.50
2023-03-30T04:04:54.940Z,14.61
2023-03-30T04:07:22.047Z,14.79
2023-03-30T04:09:49.084Z,14.90
2023-03-30T04:12:16.081Z,14.97
2023-03-30T04:14:42.858Z,15.01
2023-03-30T04:17:09.678Z,15.04
2023-03-30T04:19:37.568Z,15.09
2023-03-30T04:22:05.985Z,15.05
2023-03-30T04:24:35.539Z,15.12
2023-03-30T04:27:02.943Z,15.16
2023-03-30T04:29:30.804Z,15.22
2023-03-30T04:32:02.718Z,15.28
2023-03-30T04:34:30.901Z,15.30
2023-03-30T04:36:58.063Z,15.39
2023-03-30T04:39:30.224Z,15.37
2023-03-30T04:41:57.227Z,15.54
2023-03-30T04:44:24.211Z,15.68
2023-03-30T04:46:51.089Z,15.73
2023-03-30T04:49:17.982Z,15.76
2023-03-30T04:51:44.868Z,15.73
2023-03-30T04:54:11.844Z,15.69
2023-03-30T04:56:38.739Z,15.37
2023-03-30T04:59:05.700Z,15.67
2023-03-30T05:01:32.611Z,15.83
2023-03-30T05:03:59.485Z,15.93
2023-03-30T05:06:27.117Z,16.00
2023-03-30T05:08:54.013Z,16.00
2023-03-30T05:11:20.877Z,16.07
2023-03-30T05:13:47.696Z,15.99
2023-03-30T05:16:14.706Z,16.11
2023-03-30T05:18:41.618Z,16.10
2023-03-30T05:21:08.453Z,16.02
2023-03-30T05:23:36.169Z,16.03
2023-03-30T05:26:04.488Z,15.69
2023-03-30T05:28:32.588Z,15.74
2023-03-30T05:31:00.082Z,15.81
2023-03-30T05:33:27.078Z,15.99
2023-03-30T05:35:54.122Z,16.14
2023-03-30T05:38:21.129Z,15.99
2023-03-30T05:40:53.519Z,16.06
2023-03-30T05:43:21.040Z,15.93
2023-03-30T05:45:48.381Z,15.94
2023-03-30T05:48:15.268Z,16.19
2023-03-30T05:50:42.867Z,15.96
2023-03-30T05:53:09.871Z,16.12
2023-03-30T05:55:36.711Z,16.06
2023-03-30T05:58:03.962Z,15.94
2023-03-30T06:00:33.349Z,16.29
2023-03-30T06:03:00.640Z,15.91
2023-03-30T06:05:27.544Z,15.96
2023-03-30T06:07:54.428Z,16.39
2023-03-30T06:10:21.351Z,16.43
2023-03-30T06:12:48.200Z,16.47
2023-03-30T06:15:15.267Z,16.51
2023-03-30T06:17:42.749Z,16.49
2023-03-30T06:20:13.243Z,16.53
2023-03-30T06:22:43.926Z,16.64
2023-03-30T06:25:10.990Z,16.59
2023-03-30T06:27:37.794Z,16.67
2023-03-30T06:30:05.264Z,16.76
2023-03-30T06:32:32.349Z,16.93
2023-03-30T06:34:59.187Z,16.84
2023-03-30T06:37:26.030Z,17.02
2023-03-30T06:39:53.479Z,16.99
2023-03-30T06:42:20.750Z,17.04
2023-03-30T06:44:49.856Z,17.14
2023-03-30T06:47:16.888Z,17.05
2023-03-30T06:49:43.720Z,16.98
2023-03-30T06:52:11.422Z,17.11
2023-03-30T06:54:38.304Z,17.19
2023-03-30T06:57:05.245Z,17.26
2023-03-30T06:59:35.036Z,17.27
2023-03-30T07:02:03.537Z,17.05
2023-03-30T07:04:30.594Z,17.24
2023-03-30T07:06:57.460Z,17.35
2023-03-30T07:09:25.460Z,17.32
2023-03-30T07:11:53.878Z,17.25
2023-03-30T07:14:23.117Z,17.35
2023-03-30T07:16:51.138Z,17.24
2023-03-30T07:19:18.109Z,17.27
2023-03-30T07:21:45.080Z,17.49
2023-03-30T07:24:11.999Z,17.67
2023-03-30T07:26:38.814Z,17.70
2023-03-30T07:29:06.775Z,17.93
2023-03-30T07:31:33.743Z,18.06
2023-03-30T07:34:02.967Z,18.24
2023-03-30T07:36:29.872Z,18.70
2023-03-30T07:38:58.480Z,18.67
2023-03-30T07:41:25.349Z,18.73
2023-03-30T07:43:52.241Z,18.82
2023-03-30T07:46:19.071Z,18.76
2023-03-30T07:48:45.975Z,18.92
2023-03-30T07:51:13.940Z,18.89
2023-03-30T07:53:41.032Z,18.60
2023-03-30T07:56:08.022Z,18.39
2023-03-30T07:58:35.380Z,18.48
2023-03-30T08:01:03.567Z,18.43
2023-03-30T08:03:32.034Z,18.32
2023-03-30T08:06:04.787Z,18.26
2023-03-30T08:08:33.592Z,18.14
2023-03-30T08:11:01.200Z,18.07
2023-03-30T08:13:28.282Z,17.70
2023-03-30T08:15:55.945Z,17.94
2023-03-30T08:18:22.815Z,18.20
2023-03-30T08:20:54.298Z,18.25
2023-03-30T08:23:21.986Z,18.01
2023-03-30T08:25:52.637Z,18.35
2023-03-30T08:28:20.175Z,18.25
2023-03-30T08:30:47.410Z,18.40
2023-03-30T08:33:15.800Z,18.33
2023-03-30T08:35:47.703Z,18.66
2023-03-30T08:38:17.159Z,18.60
2023-03-30T08:40:47.009Z,18.24
2023-03-30T08:43:50.925Z,18.34
2023-03-30T08:46:18.700Z,18.77
2023-03-30T08:48:46.886Z,18.46
2023-03-30T08:51:24.597Z,18.20
2023-03-30T08:53:58.523Z,17.54
2023-03-30T08:56:42.587Z,18.04
2023-03-30T08:59:29.771Z,18.26
2023-03-30T09:02:23.429Z,18.43
2023-03-30T09:05:14.805Z,18.82
2023-03-30T09:08:03.892Z,18.99
2023-03-30T09:10:42.317Z,19.32
2023-03-30T09:13:16.136Z,19.54
2023-03-30T09:15:53.509Z,19.53
2023-03-30T09:18:35.650Z,19.99
2023-03-30T09:21:06.261Z,20.70
2023-03-30T09:23:34.250Z,21.18
2023-03-30T09:26:34.485Z,21.27
2023-03-30T09:29:49.042Z,21.14
2023-03-30T09:32:41.923Z,21.96
2023-03-30T09:35:18.855Z,22.02
2023-03-30T09:37:46.340Z,22.38
2023-03-30T09:41:06.629Z,21.08
2023-03-30T09:43:46.263Z,21.28
2023-03-30T09:46:16.306Z,21.15
2023-03-30T09:48:48.697Z,21.26
2023-03-30T09:51:31.195Z,21.71
2023-03-30T09:54:04.714Z,22.02
2023-03-30T09:56:34.525Z,22.38
2023-03-30T09:59:31.325Z,22.39
2023-03-30T10:02:13.597Z,22.66
2023-03-30T10:04:52.778Z,21.76
2023-03-30T10:07:31.684Z,21.53
2023-03-30T10:10:04.239Z,21.50
2023-03-30T10:12:31.092Z,21.74
2023-03-30T10:15:04.140Z,21.98
2023-03-30T10:17:31.570Z,22.45
2023-03-30T10:20:27.783Z,22.37
2023-03-30T10:22:59.635Z,22.82
2023-03-30T10:25:33.429Z,22.85
2023-03-30T10:28:04.845Z,22.73
2023-03-30T10:30:32.618Z,22.33
2023-03-30T10:33:02.264Z,22.20
2023-03-30T10:35:37.997Z,21.95
2023-03-30T10:38:07.887Z,21.39
2023-03-30T10:40:38.919Z,21.17
2023-03-30T10:43:14.653Z,21.10
2023-03-30T10:45:48.025Z,21.02
2023-03-30T10:48:34.821Z,20.55
2023-03-30T10:51:27.629Z,20.73
2023-03-30T10:54:04.483Z,21.32
2023-03-30T10:56:43.260Z,20.85
2023-03-30T10:59:54.794Z,20.88
2023-03-30T11:02:34.943Z,21.30
2023-03-30T11:05:15.813Z,21.37
2023-03-30T11:08:07.686Z,21.64
2023-03-30T11:10:48.529Z,21.47
2023-03-30T11:13:39.612Z,20.93
2023-03-30T11:16:26.096Z,21.10
2023-03-30T11:19:11.559Z,20.58
2023-03-30T11:22:29.364Z,20.27
2023-03-30T11:24:59.425Z,20.25
2023-03-30T11:27:39.443Z,20.03
2023-03-30T11:30:22.184Z,19.68
2023-03-30T11:33:26.928Z,19.63
2023-03-30T11:36:19.009Z,19.41
2023-03-30T11:38:58.730Z,19.48
2023-03-30T11:42:04.524Z,19.34
2023-03-30T11:44:32.344Z,19.50
2023-03-30T11:47:20.478Z,19.49
2023-03-30T11:50:24.388Z,19.33
2023-03-30T11:53:13.186Z,19.06
2023-03-30T11:56:11.246Z,18.83
2023-03-30T11:59:05.239Z,18.61
2023-03-30T12:02:08.574Z,18.23
2023-03-30T12:04:50.775Z,18.31
2023-03-30T12:07:45.907Z,18.08
2023-03-30T12:10:33.876Z,17.63
2023-03-30T12:13:01.916Z,18.07
2023-03-30T12:15:58.590Z,17.94
2023-03-30T12:18:39.347Z,17.29
2023-03-30T12:21:35.772Z,17.34
2023-03-30T12:24:28.995Z,17.28
2023-03-30T12:27:05.350Z,16.90
2023-03-30T12:32:29.221Z,16.66
2023-03-30T12:34:58.085Z,17.04
2023-03-30T12:37:35.478Z,16.70
2023-03-30T12:40:22.259Z,17.13
2023-03-30T12:43:05.923Z,17.32
2023-03-30T12:45:34.075Z,17.13
2023-03-30T12:48:42.063Z,17.14
2023-03-30T12:51:53.754Z,17.18
2023-03-30T12:54:57.381Z,17.07
2023-03-30T12:57:50.501Z,17.67
2023-03-30T13:00:40.792Z,17.59
2023-03-30T13:03:33.475Z,17.60
2023-03-30T13:06:02.582Z,17.17
2023-03-30T13:08:39.870Z,17.22
2023-03-30T13:11:14.052Z,16.66
2023-03-30T13:14:15.410Z,16.32
2023-03-30T13:16:51.536Z,16.81
2023-03-30T13:19:28.905Z,16.84
2023-03-30T13:22:12.308Z,16.95
2023-03-30T13:24:42.215Z,17.03
2023-03-30T13:27:14.911Z,17.10
2023-03-30T13:29:49.702Z,16.97
2023-03-30T13:32:33.917Z,17.15
2023-03-30T13:35:29.677Z,17.22
2023-03-30T13:38:26.753Z,16.59
2023-03-30T13:41:26.248Z,17.28
2023-03-30T13:44:29.964Z,17.37
2023-03-30T13:47:09.834Z,17.09
2023-03-30T13:49:42.432Z,16.83
2023-03-30T13:52:38.244Z,17.05
2023-03-30T13:55:16.631Z,17.24
2023-03-30T13:57:44.610Z,17.28
2023-03-30T14:00:52.175Z,17.42
2023-03-30T14:03:44.373Z,17.45
2023-03-30T14:06:14.378Z,17.17
2023-03-30T14:08:47.932Z,16.75
2023-03-30T14:11:46.521Z,16.73
2023-03-30T14:14:23.154Z,17.28
2023-03-30T14:16:51.297Z,17.37
2023-03-30T14:19:37.407Z,16.98
2023-03-30T14:22:19.262Z,16.95
2023-03-30T14:25:04.742Z,16.37
2023-03-30T14:27:38.968Z,16.77
2023-03-30T14:30:19.680Z,17.15
2023-03-30T14:32:46.717Z,17.36
2023-03-30T14:35:20.819Z,17.18
2023-03-30T14:37:52.050Z,17.46
2023-03-30T14:40:22.468Z,17.69
2023-03-30T14:42:50.918Z,17.55
2023-03-30T14:45:19.448Z,18.13
2023-03-30T14:47:48.081Z,18.52
2023-03-30T14:50:16.759Z,18.24
2023-03-30T14:52:46.784Z,18.58
2023-03-30T14:55:23.784Z,18.62
2023-03-30T14:57:51.257Z,19.10
2023-03-30T15:00:22.422Z,18.97
2023-03-30T15:02:59.020Z,19.73
2023-03-30T15:05:34.173Z,20.49
2023-03-30T15:08:03.602Z,20.20
2023-03-30T15:10:44.030Z,18.86
2023-03-30T15:13:40.163Z,18.54
2023-03-30T15:16:07.694Z,18.34
2023-03-30T15:18:36.419Z,18.16
2023-03-30T15:21:03.728Z,18.09
2023-03-30T15:23:41.351Z,17.65
2023-03-30T15:26:09.709Z,18.32
2023-03-30T15:28:53.541Z,17.65
2023-03-30T15:31:20.991Z,18.36
2023-03-30T15:33:53.242Z,18.33
2023-03-30T15:36:25.329Z,18.23
2023-03-30T15:38:58.757Z,18.59
2023-03-30T15:41:56.897Z,18.25
2023-03-30T15:44:24.964Z,18.41
2023-03-30T15:46:56.190Z,18.88
2023-03-30T15:49:40.378Z,18.96
2023-03-30T15:52:19.498Z,19.65
2023-03-30T15:54:55.498Z,19.89
2023-03-30T15:57:32.208Z,19.86
2023-03-30T16:00:12.434Z,20.23
2023-03-30T16:02:47.402Z,19.64
2023-03-30T16:05:22.287Z,19.63
2023-03-30T16:07:49.464Z,19.42
2023-03-30T16:10:27.167Z,19.96
2023-03-30T16:12:56.811Z,20.55
2023-03-30T16:15:27.674Z,20.21
2023-03-30T16:17:54.736Z,19.94
2023-03-30T16:20:31.359Z,19.43
2023-03-30T16:22:58.655Z,18.84
2023-03-30T16:25:38.353Z,19.16
2023-03-30T16:28:18.304Z,18.06
2023-03-30T16:30:48.290Z,18.47
2023-03-30T16:33:15.350Z,18.32
2023-03-30T16:35:42.196Z,18.24
2023-03-30T16:38:14.537Z,18.25
2023-03-30T16:40:44.508Z,17.84
2023-03-30T16:43:11.675Z,18.24
2023-03-30T16:45:39.198Z,18.03
2023-03-30T16:48:06.482Z,17.82
2023-03-30T16:50:56.610Z,18.06
2023-03-30T16:53:23.590Z,17.99
2023-03-30T16:55:50.500Z,17.69
2023-03-30T16:58:17.367Z,17.65
2023-03-30T17:00:53.237Z,17.73
2023-03-30T17:03:20.895Z,17.31
2023-03-30T17:05:48.863Z,17.14
2023-03-30T17:08:24.858Z,16.59
2023-03-30T17:10:54.106Z,16.84
2023-03-30T17:13:21.104Z,16.97
2023-03-30T17:15:48.025Z,16.98
2023-03-30T17:18:22.308Z,17.13
2023-03-30T17:20:52.248Z,16.78
2023-03-30T17:23:20.862Z,17.11
2023-03-30T17:25:49.447Z,16.17
2023-03-30T17:28:28.101Z,16.54
2023-03-30T17:30:58.212Z,16.60
2023-03-30T17:33:26.069Z,16.26
2023-03-30T17:36:07.337Z,16.42
2023-03-30T17:38:34.250Z,16.51
2023-03-30T17:41:01.174Z,16.24
2023-03-30T17:43:28.103Z,16.02
2023-03-30T17:45:55.034Z,16.73
2023-03-30T17:48:22.407Z,16.37
2023-03-30T17:50:50.926Z,16.41
2023-03-30T17:53:20.670Z,16.10
2023-03-30T17:55:50.330Z,16.38
2023-03-30T17:58:34.676Z,16.03
2023-03-30T18:01:07.638Z,16.32
2023-03-30T18:03:36.068Z,16.29
2023-03-30T18:06:03.075Z,16.10
2023-03-30T18:08:30.219Z,15.75
2023-03-30T18:11:01.391Z,16.20
2023-03-30T18:13:29.635Z,16.15
2023-03-30T18:15:59.463Z,16.18
2023-03-30T18:18:30.187Z,16.40
2023-03-30T18:21:03.101Z,16.00
2023-03-30T18:23:33.125Z,16.18
2023-03-30T18:25:59.991Z,16.11
2023-03-30T18:28:27.959Z,16.14
2023-03-30T18:31:00.502Z,15.58
2023-03-30T18:33:27.490Z,15.76
2023-03-30T18:35:56.750Z,16.12
2023-03-30T18:38:25.246Z,15.91
2023-03-30T18:40:58.099Z,15.65
2023-03-30T18:43:28.479Z,15.75
2023-03-30T18:46:00.801Z,15.79
2023-03-30T18:48:28.945Z,15.72
2023-03-30T18:51:01.015Z,15.83
2023-03-30T18:53:29.022Z,15.76
2023-03-30T18:56:00.144Z,15.42
2023-03-30T18:58:30.398Z,15.57
2023-03-30T19:00:57.607Z,15.71
2023-03-30T19:03:27.195Z,15.67
2023-03-30T19:05:54.585Z,15.68
2023-03-30T19:08:24.597Z,15.19
2023-03-30T19:10:55.766Z,15.68
2023-03-30T19:13:25.257Z,15.57
2023-03-30T19:15:53.017Z,15.68
2023-03-30T19:18:20.750Z,15.86
2023-03-30T19:20:49.706Z,15.65
2023-03-30T19:23:17.346Z,15.84
2023-03-30T19:25:45.311Z,15.62
2023-03-30T19:28:14.542Z,15.52
2023-03-30T19:30:41.778Z,15.84
2023-03-30T19:33:13.145Z,15.90
2023-03-30T19:35:41.357Z,15.85
2023-03-30T19:38:09.064Z,15.48
2023-03-30T19:40:38.593Z,15.84
2023-03-30T19:43:05.742Z,15.57
2023-03-30T19:45:33.214Z,15.87
2023-03-30T19:48:00.179Z,15.74
2023-03-30T19:50:28.048Z,15.86
2023-03-30T19:52:56.941Z,15.80
2023-03-30T19:55:23.790Z,15.81
2023-03-30T19:57:50.914Z,15.77
2023-03-30T20:00:18.807Z,15.76
2023-03-30T20:02:49.402Z,15.70
2023-03-30T20:05:17.594Z,15.72
2023-03-30T20:07:46.955Z,15.52
2023-03-30T20:10:21.369Z,15.64
2023-03-30T20:12:49.577Z,15.57
2023-03-30T20:15:17.385Z,15.47
2023-03-30T20:17:44.661Z,15.49
2023-03-30T20:20:16.951Z,15.61
2023-03-30T20:22:44.959Z,15.48
2023-03-30T20:25:14.212Z,15.37
2023-03-30T20:27:41.422Z,15.27
2023-03-30T20:30:09.727Z,15.35
2023-03-30T20:32:36.598Z,15.47
2023-03-30T20:35:04.402Z,15.38
2023-03-30T20:37:31.414Z,14.97
2023-03-30T20:40:04.909Z,15.43
2023-03-30T20:42:32.684Z,15.40
2023-03-30T20:45:00.814Z,15.36
2023-03-30T20:47:30.631Z,15.05
2023-03-30T20:49:58.942Z,15.20
2023-03-30T20:52:27.161Z,15.17
2023-03-30T20:54:54.291Z,15.12
2023-03-30T20:57:22.381Z,15.07
2023-03-30T20:59:50.629Z,15.07
2023-03-30T21:02:19.744Z,15.00
2023-03-30T21:04:47.344Z,14.95
2023-03-30T21:07:16.317Z,14.84
2023-03-30T21:09:43.664Z,14.76
2023-03-30T21:12:11.163Z,14.62
2023-03-30T21:14:38.044Z,14.56
2023-03-30T21:17:04.969Z,14.38
2023-03-30T21:19:32.216Z,14.24
2023-03-30T21:22:00.304Z,14.15
2023-03-30T21:24:27.757Z,14.07
2023-03-30T21:26:54.633Z,14.03
2023-03-30T21:29:22.909Z,14.05
2023-03-30T21:31:50.158Z,14.11
2023-03-30T21:34:18.598Z,14.13
2023-03-30T21:36:46.128Z,14.16
2023-03-30T21:39:13.445Z,14.04
2023-03-30T21:41:40.372Z,14.09
2023-03-30T21:44:07.616Z,14.01
2023-03-30T21:46:34.651Z,13.90
2023-03-30T21:49:01.496Z,13.85
2023-03-30T21:51:30.378Z,13.73
2023-03-30T21:53:58.344Z,13.68
2023-03-30T21:56:29.091Z,13.62
2023-03-30T21:58:56.437Z,13.78
2023-03-30T22:01:24.601Z,13.78
2023-03-30T22:03:53.604Z,13.71
2023-03-30T22:06:21.877Z,13.64
2023-03-30T22:08:49.246Z,13.59
2023-03-30T22:11:23.439Z,13.29
2023-03-30T22:13:52.083Z,13.18
2023-03-30T22:16:23.914Z,13.21
2023-03-30T22:18:51.909Z,13.22
2023-03-30T22:21:25.319Z,13.17
2023-03-30T22:23:55.388Z,13.31
2023-03-30T22:26:22.440Z,13.34
2023-03-30T22:28:49.325Z,13.38
2023-03-30T22:31:16.794Z,13.33
2023-03-30T22:33:44.976Z,13.34
2023-03-30T22:36:25.265Z,13.31
2023-03-30T22:38:52.798Z,13.28
2023-03-30T22:41:23.858Z,13.25
2023-03-30T22:43:52.660Z,13.19
2023-03-30T22:46:20.257Z,13.09
2023-03-30T22:48:49.642Z,13.32
2023-03-30T22:51:23.450Z,13.30
2023-03-30T22:53:50.473Z,13.10
2023-03-30T22:56:17.481Z,13.10
2023-03-30T22:58:44.387Z,13.06
2023-03-30T23:01:11.994Z,13.00
2023-03-30T23:03:39.155Z,13.08
2023-03-30T23:06:06.447Z,13.02
2023-03-30T23:08:33.783Z,12.96
2023-03-30T23:11:04.838Z,12.94
2023-03-30T23:13:38.333Z,12.89
2023-03-30T23:16:06.630Z,12.88
2023-03-30T23:18:34.185Z,12.74
2023-03-30T23:21:06.791Z,12.69
2023-03-30T23:23:40.537Z,12.59
2023-03-30T23:26:10.515Z,12.28
2023-03-30T23:28:41.235Z,12.42
2023-03-30T23:31:15.568Z,12.39
2023-03-30T23:33:43.505Z,12.38
2023-03-30T23:36:13.623Z,12.36
2023-03-30T23:38:41.365Z,12.35
2023-03-30T23:41:08.655Z,12.38
2023-03-30T23:43:35.701Z,12.37
2023-03-30T23:46:02.738Z,12.38
2023-03-30T23:48:29.960Z,12.39
2023-03-30T23:50:57.834Z,12.40
2023-03-30T23:53:26.288Z,12.38
2023-03-30T23:55:53.412Z,12.42
2023-03-30T23:58:20.378Z,12.48
